Latest Coastal Weather Observations for Cairns

IDQ60701

Issued at 2:01 am EST Saturday 21 January 2017 (issued every 10 minutes, with the page automatically refreshed every 10 minutes)

About coastal observations | Map of coastal stations | Coastal observations for QLD | Marine services | Other Formats
Station Details ID: 031011 Name: CAIRNS AERO Lat: -16.87 Lon: 145.75 Height: 2.22 m
Data from the previous 72 hours. | See also: Recent months at Cairns
Date/Time
EST
Temp
°C
Wind Pressure Rain since
9am
mm
Weather Cloud Vis
km
Sea
Height
m
Swell
Dir  Spd
kts
Gust
kts
hPa Trend Height
m
Period
s
Dir
21/01:30am 24.2 W 3 5 1007.8 - 3.6 - Mostly clear 10 - - - -
21/01:00am 24.4 W 1 4 1008.1 - 3.6 - Mostly clear 10 - - - -
21/12:30am 24.8 CALM 0 1 1008.5 - 3.6 - Mostly clear 10 - - - -
21/12:00am 25.0 SW 3 5 1008.7 F 3.6 - Partly cloudy 10 - - - -
 
Date/Time
EST
Temp
°C
Wind Pressure Rain since
9am
mm
Weather Cloud Vis
km
Sea
Height
m
Swell
Dir  Spd
kts
Gust
kts
hPa Trend Height
m
Period
s
Dir
20/11:30pm 24.8 SSE 5 7 1008.7 - 3.6 - Mostly clear 10 - - - -
20/11:00pm 25.1 ENE 2 4 1008.8 - 3.6 - Mostly clear 10 - - - -
20/10:30pm 25.2 W 7 8 1008.8 - 3.6 - Mostly clear 10 - - - -
20/10:00pm 25.8 WNW 6 7 1009.3 - 3.4 - Mostly clear 10 - - - -
20/09:30pm 25.6 W 9 14 1009.3 - 3.0 Showers Mostly clear 8 - - - -
20/09:23pm 26.5 W 8 14 1009.1 - 0.0 Showers Mostly clear 5 - - - -
20/09:00pm 27.0 W 7 11 1008.7 R 0.0 Showers Mostly cloudy 10 - - - -
20/08:30pm 27.8 WNW 5 8 1008.4 - 0.0 - Mostly clear 10 - - - -
20/08:00pm 28.4 W 5 6 1008.4 - 0.0 - Mostly clear 10 - - - -
20/07:30pm 28.2 NW 4 6 1007.9 - 0.0 - Mostly clear 10 - - - -
20/07:00pm 28.4 NE 4 6 1007.3 - 0.0 - Mostly clear 10 - - - -
20/06:30pm 29.2 NNE 5 6 1007.2 - 0.0 - Mostly clear 10 - - - -
20/06:00pm 29.3 NNE 6 8 1006.6 R 0.0 - Mostly cloudy 10 - - - -
20/05:30pm 29.9 N 6 8 1006.5 - 0.0 - Mostly clear 10 - - - -
20/05:00pm 29.6 NNE 6 11 1006.1 - 0.0 - Mostly clear 10 - - - -
20/04:30pm 30.4 NNE 7 13 1005.9 - 0.0 - Mostly clear 10 - - - -
20/04:00pm 30.9 NNE 8 11 1006.0 - 0.0 - Mostly clear 10 - - - -
20/03:30pm 30.8 NNE 9 13 1006.2 - 0.0 - Mostly clear 10 - - - -
20/03:00pm 31.4 N 9 13 1006.2 R 0.0 - Mostly clear 10 - - - -
20/02:30pm 30.6 NNE 9 15 1006.7 - 0.0 - Mostly clear 10 - - - -
20/02:00pm 31.4 NE 9 13 1007.0 - 0.0 - Mostly clear 10 - - - -
20/01:30pm 31.0 NE 9 13 1007.1 - 0.0 - Mostly clear 10 - - - -
20/01:00pm 30.9 NE 9 12 1007.4 - 0.0 - Mostly clear 10 - - - -
20/12:30pm 31.3 NE 9 15 1007.6 - 0.0 - Mostly clear 10 - - - -
20/12:00pm 31.6 NE 9 14 1007.8 F 0.0 - Mostly clear 10 - - - -
20/11:30am 31.2 ENE 8 11 1008.3 - 0.0 - Mostly clear 10 - - - -
20/11:00am 31.3 NNW 7 12 1008.7 - 0.0 - Mostly clear 10 - - - -
20/10:30am 31.7 SE 5 7 1009.1 - 0.0 - Mostly clear 10 - - - -
20/10:00am 30.5 ESE 2 5 1009.7 - 0.0 - Mostly clear 10 - - - -
20/09:30am 29.6 NE 3 6 1010.0 - 0.0 - Mostly clear 10 - - - -
20/09:00am 28.7 SE 5 6 1010.0 R 0.0 - Mostly clear 10 - - - -
20/08:30am 28.1 ESE 6 7 1010.1 - 0.0 - Mostly clear 10 - - - -
20/08:00am 27.3 SE 5 6 1010.0 - 0.0 - Mostly clear 10 - - - -
20/07:30am 26.0 ESE 5 6 1009.6 - 0.0 - Mostly clear 10 - - - -
20/07:00am 24.6 SW 1 4 1009.4 - 0.0 - Mostly clear 10 - - - -
20/06:30am 23.4 CALM 0 0 1009.0 - 0.0 - Mostly clear 10 - - - -
20/06:00am 23.0 SSE 4 5 1008.5 R 0.0 - Mostly clear 10 - - - -
20/05:30am 22.9 CALM 0 0 1008.1 - 0.0 - Mostly clear 10 - - - -
20/05:00am 23.1 CALM 0 0 1007.6 - 0.0 - Mostly clear 10 - - - -
20/04:30am 23.6 W 1 4 1007.1 - 0.0 - Mostly clear 10 - - - -
20/04:00am 23.3 CALM 0 0 1007.2 - 0.0 - Mostly clear 10 - - - -
20/03:30am 23.1 S 3 5 1007.0 - 0.0 - Mostly clear 10 - - - -
20/03:00am 23.3 CALM 0 0 1007.1 R 0.0 - Mostly clear 10 - - - -
20/02:30am 23.6 CALM 0 0 1007.1 - 0.0 - Mostly clear 10 - - - -
20/02:00am 23.7 CALM 0 0 1007.3 - 0.0 - Mostly clear 10 - - - -
20/01:30am 24.0 CALM 0 0 1007.5 - 0.0 - Mostly clear 10 - - - -
20/01:00am 24.2 W 4 4 1007.8 - 0.0 - Mostly clear 10 - - - -
20/12:30am 24.2 CALM 0 0 1008.1 - 0.0 - Mostly clear 10 - - - -
20/12:00am 24.7 CALM 0 0 1008.5 F 0.0 - Mostly clear 10 - - - -
 
Date/Time
EST
Temp
°C
Wind Pressure Rain since
9am
mm
Weather Cloud Vis
km
Sea
Height
m
Swell
Dir  Spd
kts
Gust
kts
hPa Trend Height
m
Period
s
Dir
19/11:30pm 25.0 W 1 4 1008.9 - 0.0 - Mostly clear 10 - - - -
19/11:00pm 25.9 SSE 5 7 1009.1 - 0.0 - Mostly clear 10 - - - -
19/10:30pm 25.5 SSW 5 6 1009.2 - 0.0 - Mostly clear 10 - - - -
19/10:00pm 25.9 W 5 6 1009.1 - 0.0 - Mostly clear 10 - - - -
19/09:30pm 27.0 W 5 6 1008.8 - 0.0 - Mostly clear 10 - - - -
19/09:00pm 26.6 W 5 6 1008.6 F 0.0 - Mostly clear 10 - - - -
19/08:30pm 27.1 WSW 5 6 1008.8 - 0.0 - Mostly clear 10 - - - -
19/08:00pm 26.9 W 4 6 1008.7 - 0.0 - Mostly clear 10 - - - -
19/07:30pm 27.0 CALM 0 3 1008.2 - 0.0 - Mostly clear 10 - - - -
19/07:00pm 28.8 E 8 10 1007.6 - 0.0 - Mostly clear 10 - - - -
19/06:30pm 29.5 E 10 13 1007.1 - 0.0 - Mostly clear 10 - - - -
19/06:00pm 30.5 E 9 11 1007.1 F 0.0 - Mostly clear 10 - - - -
19/05:30pm 30.7 ENE 11 15 1006.9 - 0.0 - Mostly clear 10 - - - -
19/05:00pm 31.0 ENE 11 16 1006.7 - 0.0 - Mostly clear 10 - - - -
19/04:30pm 31.0 ENE 12 16 1006.7 - 0.0 - Mostly clear 10 - - - -
19/04:00pm 31.6 NE 10 15 1006.9 - 0.0 - Mostly clear 10 - - - -
19/03:30pm 31.5 ENE 10 14 1007.1 - 0.0 - Mostly clear 10 - - - -
19/03:00pm 31.3 NNE 10 16 1007.5 S 0.0 - Mostly clear 10 - - - -
19/02:30pm 31.5 ENE 10 14 1007.7 - 0.0 - Mostly clear 10 - - - -
19/02:00pm 31.5 NE 10 14 1008.1 - 0.0 - Mostly clear 10 - - - -
19/01:30pm 31.6 ENE 11 15 1008.5 - 0.0 - Mostly clear 10 - - - -
19/01:00pm 31.6 NE 10 13 1008.9 - 0.0 - Mostly clear 10 - - - -
19/12:30pm 30.9 NE 11 14 1009.0 - 0.0 - Mostly clear 10 - - - -
19/12:00pm 30.9 NE 9 13 1009.2 F 0.0 - Mostly clear 10 - - - -
19/11:30am 31.3 NE 8 10 1009.5 - 0.0 - Mostly clear 10 - - - -
19/11:00am 31.6 NE 5 9 1009.9 - 0.0 - Mostly clear 10 - - - -
19/10:30am 30.6 S 5 7 1010.3 - 0.0 - Mostly clear 10 - - - -
19/10:00am 29.8 SSE 6 9 1010.6 - 0.0 - Mostly clear 10 - - - -
19/09:30am 29.2 SE 8 9 1011.1 - 0.0 - Mostly clear 10 - - - -
19/09:00am 28.4 SE 7 9 1011.3 F 1.6 - Mostly clear 10 - - - -
19/08:30am 27.7 SW 3 7 1011.4 - 1.6 - Mostly clear 10 - - - -
19/08:00am 26.3 SSE 6 7 1011.5 - 1.6 - Mostly clear 10 - - - -
19/07:30am 25.5 SSE 4 6 1011.5 - 1.6 - Mostly clear 10 - - - -
19/07:00am 24.2 CALM 0 0 1011.5 - 1.6 - Mostly clear 10 - - - -
19/06:30am 23.3 WSW 4 5 1011.4 - 1.6 - Mostly clear 10 - - - -
19/06:00am 22.9 SSE 5 8 1011.1 S 1.6 - Mostly clear 10 - - - -
19/05:30am 22.9 CALM 0 0 1010.8 - 1.6 - Mostly clear 10 - - - -
19/05:00am 23.3 WSW 3 6 1010.3 - 1.6 - Mostly clear 10 - - - -
19/04:30am 23.4 SW 4 5 1010.0 - 1.6 - Mostly clear 10 - - - -
19/04:00am 23.5 WSW 4 5 1009.9 - 1.6 - Mostly clear 10 - - - -
19/03:30am 23.7 SE 10 11 1010.0 - 1.6 - Mostly clear 10 - - - -
19/03:00am 23.7 SSW 4 6 1010.3 R 1.6 - Mostly clear 10 - - - -
19/02:30am 23.9 CALM 0 0 1010.4 - 1.6 - Mostly clear 10 - - - -
19/02:00am 24.0 WNW 3 5 1010.5 - 1.6 - Mostly clear 10 - - - -
19/01:30am 24.3 SW 3 7 1010.6 - 1.6 - Mostly clear 10 - - - -
19/01:00am 24.0 CALM 0 0 1010.7 - 1.6 - Mostly clear 10 - - - -
19/12:30am 24.2 W 3 3 1010.9 - 1.6 - Mostly clear 10 - - - -
19/12:00am 24.2 WSW 2 4 1011.0 F 1.6 - Mostly clear 10 - - - -
 
Date/Time
EST
Temp
°C
Wind Pressure Rain since
9am
mm
Weather Cloud Vis
km
Sea
Height
m
Swell
Dir  Spd
kts
Gust
kts
hPa Trend Height
m
Period
s
Dir
18/11:30pm 24.2 CALM 0 0 1011.2 - 1.6 - Mostly clear 10 - - - -
18/11:00pm 24.6 W 3 4 1011.5 - 1.6 - Mostly clear 10 - - - -
18/10:30pm 24.7 SSE 1 4 1011.4 - 1.6 - Mostly clear 10 - - - -
18/10:00pm 24.8 CALM 0 0 1011.8 - 1.6 - Mostly clear 10 - - - -
18/09:30pm 25.2 W 5 5 1011.7 - 1.6 - Mostly clear 10 - - - -
18/09:00pm 25.4 W 5 6 1011.5 F 1.6 - Mostly clear 10 - - - -
18/08:30pm 25.6 W 5 6 1011.3 - 1.6 - Mostly clear 10 - - - -
18/08:00pm 26.0 W 3 4 1010.9 - 1.6 - Mostly clear 10 - - - -
18/07:30pm 26.1 CALM 0 0 1010.8 - 1.6 - Mostly clear 10 - - - -
18/07:00pm 26.4 WSW 2 4 1010.8 - 1.6 - Mostly clear 10 - - - -
18/06:30pm 26.7 SSE 5 6 1010.3 - 1.6 - Mostly clear 10 - - - -
18/06:00pm 27.2 ENE 4 6 1010.1 R 1.6 Rain Cloudy 10 - - - -
18/05:30pm 25.9 S 9 17 1010.0 - 1.4 Showers Partly cloudy 9 - - - -
18/05:25pm 25.6 S 11 17 1010.0 - 1.4 Showers Partly cloudy 6 - - - -
18/05:00pm 27.9 S 9 13 1009.5 - 0.4 - Partly cloudy 10 - - - -
18/04:30pm 29.7 ESE 12 16 1009.4 - 0.4 - Mostly clear 10 - - - -
18/04:00pm 29.7 ESE 14 17 1009.2 - 0.4 - Mostly clear 10 - - - -
18/03:30pm 30.2 ESE 12 16 1009.1 - 0.4 - Mostly clear 10 - - - -
18/03:00pm 30.4 E 12 16 1009.5 F 0.4 - Cloudy 10 - - - -
18/02:30pm 30.8 ENE 11 15 1009.7 - 0.4 - Mostly clear 10 - - - -
18/02:00pm 30.2 ENE 12 15 1010.0 - 0.4 - Mostly clear 10 - - - -
18/01:30pm 30.8 E 5 11 1010.5 - 0.4 - Mostly clear 10 - - - -
18/01:00pm 30.9 E 11 15 1011.0 - 0.4 - Partly cloudy 10 - - - -
18/12:30pm 31.1 NE 9 14 1011.2 - 0.4 - Mostly clear 10 - - - -
18/12:00pm 30.6 ENE 8 10 1011.7 F 0.4 Rain Cloudy 10 - - - -
18/11:30am 29.4 N 3 6 1012.1 - 0.4 - Partly cloudy 10 - - - -
18/11:22am 29.5 NNW 2 5 1012.2 - 0.4 - Partly cloudy 10 - - - -
18/11:00am 27.9 ENE 9 12 1012.6 - 0.0 - Partly cloudy 9 - - - -
18/10:30am 30.0 ESE 7 10 1012.6 - 0.0 - Partly cloudy 10 - - - -
18/10:00am 29.2 SSE 7 9 1012.6 - 0.0 - Partly cloudy 10 - - - -
18/09:30am 29.5 SSE 7 10 1013.1 - 0.0 - Partly cloudy 10 - - - -
18/09:00am 28.6 SE 8 10 1013.3 F 39.2 - Partly cloudy 10 - - - -
18/08:30am 27.5 SSE 7 9 1013.3 - 39.2 - Partly cloudy 10 - - - -
18/08:00am 27.1 SE 6 8 1013.1 - 39.2 - Mostly clear 10 - - - -
18/07:30am 25.6 SSE 4 5 1013.3 - 39.2 - Mostly clear 10 - - - -
18/07:00am 25.1 W 2 4 1013.3 - 39.2 - Mostly clear 10 - - - -
18/06:30am 24.7 W 3 4 1013.2 - 39.2 - Mostly clear 10 - - - -
18/06:00am 24.5 SSW 5 7 1012.8 R 39.2 - Partly cloudy 10 - - - -
18/05:30am 24.8 SE 7 9 1012.1 - 39.2 - Mostly clear 10 - - - -
18/05:00am 24.7 SE 9 13 1011.6 - 39.2 - Mostly clear 10 - - - -
18/04:30am 24.9 SSE 6 12 1011.5 - 39.2 - Mostly clear 10 - - - -
18/04:00am 24.4 SSW 5 7 1011.4 - 39.0 - Mostly clear 8 - - - -
18/03:30am 25.0 S 7 10 1011.5 - 37.4 Showers Mostly clear 10 - - - -
18/03:00am 24.7 S 5 9 1011.3 R 37.4 Showers Mostly cloudy 8 - - - -
18/02:30am 24.6 S 4 7 1011.5 - 36.8 Showers Mostly clear 8 - - - -

Other Formats:

Comma delimited format used in spreadsheet applications
http://www.bom.gov.au/fwo/IDQ60701/IDQ60701.94287.axf

JavaScript Object Notation format (JSON) in row-major order
http://www.bom.gov.au/fwo/IDQ60701/IDQ60701.94287.json